Time;durP1;ratioP1;P1;durP2;ratioP2;P2;SDS_P1;SDS_P2;PMS_P1;PMS_P2;Temp;Humidity;BMP_temperature;BMP_pressure;BME280_temperature;BME280_humidity;BME280_pressure;Samples;Min_cycle;Max_cycle;Signal;HPM_P1;HPM_P2
2022/05/31 00:00:31;;;;;;;1.50;0.80;;;;;;;12.35;51.88;99722.91;5051439;28;20060;-61
2022/05/31 00:02:58;;;;;;;0.93;0.70;;;;;;;12.32;51.73;99726.59;5052728;28;20064;-61
2022/05/31 00:05:25;;;;;;;1.40;0.70;;;;;;;12.30;51.72;99722.38;5051409;28;20041;-61
2022/05/31 00:07:52;;;;;;;3.15;0.75;;;;;;;12.29;51.82;99723.31;5052494;28;20525;-64
2022/05/31 00:10:19;;;;;;;2.17;1.10;;;;;;;12.24;51.74;99719.19;5067586;28;20064;-60
2022/05/31 00:12:47;;;;;;;0.80;0.73;;;;;;;12.21;51.88;99722.00;5052704;28;20579;-61
2022/05/31 00:15:15;;;;;;;1.80;1.00;;;;;;;12.18;52.02;99721.38;5052391;28;20057;-61
2022/05/31 00:17:42;;;;;;;1.73;1.20;;;;;;;12.15;51.99;99714.47;5052365;28;20505;-61
2022/05/31 00:20:11;;;;;;;1.38;1.00;;;;;;;12.10;52.27;99720.06;5052293;28;20060;-62
2022/05/31 00:22:39;;;;;;;2.60;0.88;;;;;;;12.10;52.22;99722.72;5051043;28;20068;-61
2022/05/31 00:25:06;;;;;;;2.33;1.52;;;;;;;12.08;52.41;99724.56;5050900;28;20056;-60
2022/05/31 00:27:34;;;;;;;1.83;1.20;;;;;;;12.08;52.62;99723.75;5052512;28;20063;-62
2022/05/31 00:30:00;;;;;;;1.38;1.05;;;;;;;12.05;52.64;99719.53;5052195;28;20067;-61
2022/05/31 00:32:33;;;;;;;2.65;1.20;;;;;;;12.04;53.22;99720.41;5052114;28;20110;-63
2022/05/31 00:35:06;;;;;;;3.40;1.25;;;;;;;12.04;53.42;99720.41;5050968;28;20052;-61
2022/05/31 00:37:34;;;;;;;5.10;1.33;;;;;;;12.04;53.01;99715.13;5052066;28;20048;-62
2022/05/31 00:40:03;;;;;;;1.63;1.30;;;;;;;12.04;53.12;99709.84;5067441;28;20059;-62
2022/05/31 00:42:46;;;;;;;1.27;1.00;;;;;;;12.01;53.60;99718.00;5067165;28;20052;-61
2022/05/31 00:45:13;;;;;;;1.02;0.93;;;;;;;12.05;53.12;99714.25;5051881;28;20053;-62
2022/05/31 00:47:39;;;;;;;2.85;1.30;;;;;;;12.05;53.12;99714.25;5051970;28;20140;-61
2022/05/31 00:50:10;;;;;;;2.55;1.30;;;;;;;12.04;53.54;99711.66;5051651;28;20048;-63
2022/05/31 00:52:41;;;;;;;2.53;1.30;;;;;;;12.04;53.63;99717.78;5052168;28;20060;-60
2022/05/31 00:55:19;;;;;;;3.28;0.95;;;;;;;12.04;53.57;99712.50;5050514;28;20061;-61
2022/05/31 00:57:57;;;;;;;2.25;1.00;;;;;;;12.02;53.63;99701.22;5051756;28;20060;-61
2022/05/31 01:00:24;;;;;;;0.73;0.73;;;;;;;12.04;53.37;99696.66;5049400;28;20060;-60
2022/05/31 01:02:51;;;;;;;1.08;0.70;;;;;;;12.05;53.05;99692.25;5051386;28;20057;-61
2022/05/31 01:05:19;;;;;;;3.45;1.20;;;;;;;12.04;53.16;99703.75;5051407;28;20394;-61
2022/05/31 01:07:46;;;;;;;2.65;0.90;;;;;;;12.03;53.10;99694.97;5066797;28;20432;-60
2022/05/31 01:10:14;;;;;;;1.10;1.00;;;;;;;12.03;53.15;99704.72;5051377;28;20098;-60
2022/05/31 01:12:43;;;;;;;1.42;0.80;;;;;;;12.02;52.96;99703.00;5050032;28;20061;-60
2022/05/31 01:15:12;;;;;;;2.25;0.90;;;;;;;12.01;52.84;99701.31;5049838;28;20057;-62
2022/05/31 01:17:42;;;;;;;1.30;0.80;;;;;;;12.00;53.14;99695.16;5050328;28;20056;-60
2022/05/31 01:20:11;;;;;;;1.77;0.80;;;;;;;11.99;53.14;99701.41;5050158;28;20110;-60
2022/05/31 01:22:43;;;;;;;2.20;1.10;;;;;;;11.99;52.85;99699.63;5066553;28;20459;-63
2022/05/31 01:25:22;;;;;;;1.00;0.88;;;;;;;11.97;53.70;99698.03;5051228;28;20572;-63
2022/05/31 01:28:26;;;;;;;1.40;1.00;;;;;;;11.96;53.45;99686.63;5051320;28;20053;-61
2022/05/31 01:30:59;;;;;;;1.90;1.27;;;;;;;12.00;53.13;99700.44;5050889;28;20126;-60
2022/05/31 01:33:37;;;;;;;2.42;1.15;;;;;;;11.97;53.44;99695.38;5049694;28;20496;-61
2022/05/31 01:36:12;;;;;;;1.55;0.93;;;;;;;11.97;53.37;99698.03;5049475;28;20416;-62
2022/05/31 01:38:49;;;;;;;2.00;1.27;;;;;;;11.95;53.40;99703.41;5049864;28;20059;-61
2022/05/31 01:41:26;;;;;;;5.70;1.50;;;;;;;11.95;53.32;99702.53;5066138;28;20268;-61
2022/05/31 01:43:57;;;;;;;1.27;1.05;;;;;;;11.97;52.99;99698.03;5049570;28;20505;-61
2022/05/31 01:46:31;;;;;;;2.47;1.10;;;;;;;11.94;53.26;99698.22;5049466;28;20056;-61
2022/05/31 01:49:01;;;;;;;3.72;1.30;;;;;;;11.96;53.05;99697.16;5066014;28;20056;-61
2022/05/31 01:51:28;;;;;;;4.00;1.05;;;;;;;11.96;52.86;99698.97;5050437;28;20060;-61
2022/05/31 01:53:57;;;;;;;4.00;1.52;;;;;;;11.94;52.89;99696.44;5050796;28;20151;-63
2022/05/31 01:56:23;;;;;;;3.03;1.23;;;;;;;11.93;52.90;99693.88;5050573;28;20551;-60
2022/05/31 01:58:54;;;;;;;2.88;0.98;;;;;;;11.91;53.37;99693.13;5050353;28;20067;-63
2022/05/31 02:01:26;;;;;;;1.60;0.85;;;;;;;11.92;52.82;99697.47;5065294;28;20136;-60
2022/05/31 02:03:53;;;;;;;2.95;1.23;;;;;;;11.90;53.03;99684.38;5049321;28;20065;-62
2022/05/31 02:06:30;;;;;;;2.70;0.98;;;;;;;11.87;53.34;99684.56;5050661;28;20064;-60
2022/05/31 02:08:57;;;;;;;2.22;0.80;;;;;;;11.88;52.83;99690.72;5050451;28;20049;-61
2022/05/31 02:11:24;;;;;;;2.03;0.80;;;;;;;11.85;52.74;99684.66;5048732;28;20610;-60
2022/05/31 02:13:50;;;;;;;3.30;1.00;;;;;;;11.83;52.75;99683.94;5050107;28;20528;-61
2022/05/31 02:16:17;;;;;;;2.70;0.82;;;;;;;11.81;52.77;99674.44;5050673;28;20061;-62
2022/05/31 02:21:38;;;;;;;0.68;0.60;;;;;;;11.79;52.86;99679.78;5050134;28;20052;-60
2022/05/31 02:24:09;;;;;;;1.08;0.70;;;;;;;11.78;52.85;99685.97;5049422;28;20071;-60
2022/05/31 02:26:37;;;;;;;1.25;0.70;;;;;;;11.79;52.79;99671.03;5050255;28;20508;-61
2022/05/31 02:29:03;;;;;;;2.72;0.80;;;;;;;11.78;52.69;99678.06;5065582;28;20057;-62
2022/05/31 02:31:30;;;;;;;2.92;0.95;;;;;;;11.79;52.69;99676.28;5050253;28;20056;-61
2022/05/31 02:33:57;;;;;;;2.72;0.73;;;;;;;11.79;52.79;99671.88;5050133;28;20049;-62
2022/05/31 02:36:24;;;;;;;2.35;1.15;;;;;;;11.81;52.84;99667.34;5050057;28;20123;-61
2022/05/31 02:38:51;;;;;;;3.80;0.95;;;;;;;11.83;52.90;99672.53;5049179;28;20514;-59
2022/05/31 02:41:18;;;;;;;3.17;0.88;;;;;;;11.86;52.76;99677.63;5050044;28;20056;-62
2022/05/31 02:43:44;;;;;;;4.70;0.93;;;;;;;11.86;52.95;99678.44;5050246;28;20057;-61
2022/05/31 02:46:11;;;;;;;2.88;0.90;;;;;;;11.88;52.85;99665.16;5050174;28;20053;-61
2022/05/31 02:48:38;;;;;;;3.28;0.88;;;;;;;11.90;52.91;99668.56;5050093;28;20041;-61
2022/05/31 02:51:04;;;;;;;2.83;0.90;;;;;;;11.91;52.84;99661.47;5049780;28;20060;-60
2022/05/31 02:53:31;;;;;;;1.95;1.00;;;;;;;11.91;52.83;99659.69;5050371;28;20460;-60
2022/05/31 02:55:58;;;;;;;4.13;1.00;;;;;;;11.93;52.81;99662.22;5049974;28;20045;-60
2022/05/31 02:58:25;;;;;;;1.25;1.08;;;;;;;11.93;52.92;99657.78;5065253;28;20076;-61
2022/05/31 03:00:53;;;;;;;1.17;0.88;;;;;;;11.94;52.86;99663.91;5048770;28;20063;-63
2022/05/31 03:03:20;;;;;;;1.65;1.10;;;;;;;11.93;52.83;99663.06;5049765;28;20501;-60
2022/05/31 03:05:47;;;;;;;1.35;0.90;;;;;;;11.93;52.48;99663.06;5050060;28;20682;-61
2022/05/31 03:08:13;;;;;;;7.53;1.10;;;;;;;11.93;52.72;99667.50;5050144;28;20052;-60
2022/05/31 03:10:45;;;;;;;4.25;1.00;;;;;;;11.92;52.90;99660.56;5049655;28;20675;-61
2022/05/31 03:13:24;;;;;;;2.20;0.88;;;;;;;11.91;52.72;99659.69;5048909;28;20106;-60
2022/05/31 03:15:55;;;;;;;2.42;1.00;;;;;;;11.92;52.63;99655.28;5049585;28;20432;-61
2022/05/31 03:18:27;;;;;;;4.60;0.95;;;;;;;11.91;52.69;99659.69;5048953;28;20106;-61
2022/05/31 03:20:57;;;;;;;1.33;0.90;;;;;;;11.91;52.65;99653.56;5065182;28;20080;-60
2022/05/31 03:23:30;;;;;;;2.25;0.90;;;;;;;11.89;52.96;99652.81;5050081;28;20056;-61
2022/05/31 03:26:00;;;;;;;2.08;0.98;;;;;;;11.89;52.78;99656.28;5051680;28;20048;-63
2022/05/31 03:28:27;;;;;;;1.80;1.00;;;;;;;11.89;52.83;99652.81;5052076;28;20056;-63
2022/05/31 03:30:56;;;;;;;2.10;1.02;;;;;;;11.89;52.73;99655.47;5052168;28;20049;-61
2022/05/31 03:33:26;;;;;;;2.50;1.42;;;;;;;11.86;52.90;99656.50;5053340;28;20057;-61
2022/05/31 03:35:52;;;;;;;1.48;1.02;;;;;;;11.85;52.74;99657.47;5051884;28;20060;-61
2022/05/31 03:38:19;;;;;;;1.42;0.77;;;;;;;11.84;52.52;99661.03;5053291;28;20057;-61
2022/05/31 03:41:01;;;;;;;2.08;1.05;;;;;;;11.82;52.31;99655.84;5051706;28;20055;-60
2022/05/31 03:43:31;;;;;;;2.00;1.05;;;;;;;11.79;52.64;99658.69;5053295;28;20052;-62
2022/05/31 03:45:57;;;;;;;2.15;0.90;;;;;;;11.78;52.68;99656.97;5051859;28;20103;-61
2022/05/31 03:48:25;;;;;;;1.48;0.82;;;;;;;11.75;52.55;99657.19;5053441;28;20052;-60
2022/05/31 03:51:03;;;;;;;3.90;1.20;;;;;;;11.71;53.27;99653.06;5052839;28;20049;-60
2022/05/31 03:53:31;;;;;;;1.27;1.13;;;;;;;11.72;52.91;99655.59;5051577;28;20056;-61
2022/05/31 03:56:01;;;;;;;6.38;1.25;;;;;;;11.70;53.03;99659.28;5052895;28;20049;-63
2022/05/31 03:58:27;;;;;;;1.38;1.10;;;;;;;11.70;52.91;99659.28;5051612;28;20045;-61
2022/05/31 04:00:54;;;;;;;4.32;1.15;;;;;;;11.68;52.92;99654.09;5051251;28;20409;-61
2022/05/31 04:03:21;;;;;;;6.65;1.42;;;;;;;11.69;53.09;99654.94;5052661;28;20103;-62
2022/05/31 04:05:48;;;;;;;2.08;1.40;;;;;;;11.68;53.15;99659.38;5052675;28;20079;-63
2022/05/31 04:08:15;;;;;;;2.85;1.45;;;;;;;11.69;53.51;99650.50;5068035;28;20054;-61
2022/05/31 04:10:43;;;;;;;2.85;1.27;;;;;;;11.72;53.43;99654.75;5052335;28;20485;-63
2022/05/31 04:13:10;;;;;;;4.47;1.38;;;;;;;11.74;53.44;99644.97;5051407;28;20060;-61
2022/05/31 04:15:38;;;;;;;2.47;1.35;;;;;;;11.78;53.25;99648.25;5052851;28;20511;-60
2022/05/31 04:18:04;;;;;;;3.08;1.40;;;;;;;11.79;53.42;99650.78;5052638;28;20496;-61
2022/05/31 04:20:33;;;;;;;4.00;1.38;;;;;;;11.84;53.38;99655.75;5052172;28;20052;-61
2022/05/31 04:25:45;;;;;;;6.03;1.45;;;;;;;11.91;53.58;99653.56;5052359;28;20053;-61
2022/05/31 04:28:12;;;;;;;1.83;1.35;;;;;;;11.93;53.46;99652.50;5052256;28;20053;-62
2022/05/31 04:30:42;;;;;;;1.63;1.20;;;;;;;11.95;53.72;99661.19;5051938;28;20045;-61
2022/05/31 04:33:09;;;;;;;2.65;1.10;;;;;;;11.99;53.51;99664.47;5052115;28;20540;-61
2022/05/31 04:35:36;;;;;;;3.53;1.40;;;;;;;12.02;53.59;99660.78;5050817;28;20652;-61
2022/05/31 04:38:02;;;;;;;5.97;1.50;;;;;;;12.05;53.38;99660.59;5052092;28;20448;-62
2022/05/31 04:40:29;;;;;;;1.77;1.20;;;;;;;12.08;53.44;99665.72;5052093;28;20095;-61
2022/05/31 04:42:55;;;;;;;2.42;1.27;;;;;;;12.10;53.42;99662.03;5052089;28;20053;-61
2022/05/31 04:45:22;;;;;;;1.67;1.10;;;;;;;12.13;53.57;99660.97;5051724;28;20580;-63
2022/05/31 04:47:49;;;;;;;3.33;1.40;;;;;;;12.16;53.65;99667.84;5052096;28;20456;-61
2022/05/31 04:50:15;;;;;;;9.13;1.67;;;;;;;12.19;53.94;99662.38;5051956;28;20049;-61
2022/05/31 04:52:42;;;;;;;3.08;1.23;;;;;;;12.23;54.06;99663.88;5051592;28;20493;-62
2022/05/31 04:55:09;;;;;;;3.45;1.55;;;;;;;12.27;54.11;99661.84;5051618;28;20122;-61
2022/05/31 04:57:35;;;;;;;5.90;1.40;;;;;;;12.30;54.19;99665.13;5051770;28;20049;-60
2022/05/31 05:00:03;;;;;;;2.35;1.20;;;;;;;12.33;54.64;99659.66;5051516;28;20111;-61
2022/05/31 05:02:30;;;;;;;4.03;1.48;;;;;;;12.37;54.46;99665.56;5051644;28;20056;-60
2022/05/31 05:04:57;;;;;;;2.85;1.40;;;;;;;12.42;54.70;99662.66;5051437;28;20087;-63
2022/05/31 05:07:23;;;;;;;8.18;1.77;;;;;;;12.46;54.36;99670.28;5051573;28;20151;-63
2022/05/31 05:09:50;;;;;;;2.30;1.60;;;;;;;12.50;54.37;99658.56;5051580;28;20052;-61
2022/05/31 05:12:16;;;;;;;3.80;1.55;;;;;;;12.55;54.89;99658.22;5051136;28;20049;-60
2022/05/31 05:14:43;;;;;;;3.80;1.80;;;;;;;12.59;54.21;99665.00;5051701;28;20049;-63
2022/05/31 05:17:10;;;;;;;2.30;1.63;;;;;;;12.64;54.32;99657.59;5051704;28;20053;-61
2022/05/31 05:19:36;;;;;;;3.60;1.48;;;;;;;12.70;54.29;99658.13;5051355;28;20053;-61
2022/05/31 05:22:03;;;;;;;3.60;1.50;;;;;;;12.77;54.12;99651.50;5050992;28;20098;-61
2022/05/31 05:24:29;;;;;;;3.20;1.63;;;;;;;12.82;54.30;99662.59;5051417;28;20056;-61
2022/05/31 05:26:56;;;;;;;6.40;1.90;;;;;;;12.90;54.28;99659.44;5051057;28;20114;-61
2022/05/31 05:32:12;;;;;;;3.03;1.70;;;;;;;13.03;54.07;99659.44;5040359;28;20416;-62
2022/05/31 05:34:39;;;;;;;5.35;1.65;;;;;;;13.10;54.06;99647.50;5051203;28;20049;-60
2022/05/31 05:37:05;;;;;;;3.53;1.60;;;;;;;13.19;53.85;99645.16;5049737;28;20053;-64
2022/05/31 05:39:32;;;;;;;5.40;1.38;;;;;;;13.26;53.79;99647.28;5050940;28;20045;-61
2022/05/31 05:42:04;;;;;;;5.25;1.75;;;;;;;13.36;53.47;99650.13;5051185;28;20053;-61
2022/05/31 05:44:31;;;;;;;5.65;1.70;;;;;;;13.46;53.38;99652.09;5049644;28;20437;-62
2022/05/31 05:46:57;;;;;;;4.80;1.77;;;;;;;13.55;53.39;99652.34;5050340;28;20512;-64
2022/05/31 05:49:24;;;;;;;3.80;1.25;;;;;;;13.65;53.54;99652.50;5050690;28;20048;-60
2022/05/31 05:51:51;;;;;;;3.03;1.55;;;;;;;13.78;53.19;99651.63;5050493;28;20477;-60
2022/05/31 05:54:17;;;;;;;4.32;1.30;;;;;;;13.87;53.32;99644.84;5050718;28;20056;-61
2022/05/31 05:56:44;;;;;;;3.35;1.50;;;;;;;13.95;52.85;99647.75;5050830;28;20467;-62
2022/05/31 05:59:10;;;;;;;3.42;1.52;;;;;;;14.03;52.94;99648.06;5050749;28;20056;-63
2022/05/31 06:01:54;;;;;;;3.50;1.70;;;;;;;14.08;52.54;99650.34;5050380;28;20111;-62
2022/05/31 06:04:49;;;;;;;4.75;1.30;;;;;;;14.16;52.04;99653.28;5049825;28;20107;-61
2022/05/31 06:07:26;;;;;;;4.40;1.60;;;;;;;14.22;52.15;99651.13;5049325;28;20110;-62
2022/05/31 06:10:07;;;;;;;2.53;1.38;;;;;;;14.25;51.79;99650.91;5049402;28;20132;-62
2022/05/31 06:12:38;;;;;;;3.08;1.73;;;;;;;14.30;51.54;99652.25;5050413;28;20053;-61
2022/05/31 06:15:18;;;;;;;5.78;2.03;;;;;;;14.36;51.97;99658.03;5049139;28;20061;-61
2022/05/31 06:17:48;;;;;;;3.63;1.65;;;;;;;14.41;52.22;99654.09;5050677;28;20079;-60
2022/05/31 06:20:15;;;;;;;3.88;1.80;;;;;;;14.48;52.31;99645.69;5050414;28;20049;-61
2022/05/31 06:22:42;;;;;;;4.07;2.00;;;;;;;14.53;52.46;99649.69;5050230;28;20087;-62
2022/05/31 06:25:13;;;;;;;4.63;1.88;;;;;;;14.59;52.61;99648.38;5050417;28;20489;-62
2022/05/31 06:27:40;;;;;;;4.93;2.25;;;;;;;14.67;52.64;99645.13;5049399;28;20056;-60
2022/05/31 06:30:07;;;;;;;6.50;2.10;;;;;;;14.72;52.67;99643.81;5050307;28;20053;-66
2022/05/31 06:32:34;;;;;;;5.18;2.35;;;;;;;14.79;52.58;99640.72;5050081;28;20068;-62
2022/05/31 06:35:01;;;;;;;5.03;2.35;;;;;;;14.85;52.58;99640.28;5050106;28;20045;-63
2022/05/31 06:37:30;;;;;;;3.85;2.08;;;;;;;14.89;52.67;99640.88;5050392;28;20485;-61
2022/05/31 06:39:57;;;;;;;3.42;1.90;;;;;;;14.93;52.58;99640.53;5049052;28;20060;-60
2022/05/31 06:42:24;;;;;;;7.28;2.55;;;;;;;14.96;52.68;99640.25;5065540;28;20067;-61
2022/05/31 06:44:51;;;;;;;5.18;2.22;;;;;;;15.02;52.77;99636.31;5050788;28;20071;-63
2022/05/31 06:47:17;;;;;;;3.67;2.10;;;;;;;15.07;52.92;99639.44;5050217;28;20550;-61
2022/05/31 06:49:44;;;;;;;6.32;2.38;;;;;;;15.12;52.55;99639.09;5050265;28;20413;-61
2022/05/31 06:57:46;;;;;;;5.82;2.30;;;;;;;15.28;52.61;99644.03;5050293;28;20061;-62
2022/05/31 07:00:16;;;;;;;3.95;2.10;;;;;;;15.32;52.67;99644.63;5051150;28;20057;-60
2022/05/31 07:02:43;;;;;;;4.45;2.42;;;;;;;15.35;52.83;99642.59;5052524;28;20106;-63
2022/05/31 07:05:11;;;;;;;4.25;2.28;;;;;;;15.40;52.66;99641.38;5054347;28;20083;-62
2022/05/31 07:07:38;;;;;;;3.90;1.88;;;;;;;15.45;52.14;99645.34;5052660;28;20071;-63
2022/05/31 07:10:06;;;;;;;5.50;2.05;;;;;;;15.50;52.15;99629.91;5052617;28;20078;-63
2022/05/31 07:12:34;;;;;;;5.15;2.05;;;;;;;15.56;52.10;99631.25;5052334;28;20040;-60
2022/05/31 07:15:02;;;;;;;4.28;2.47;;;;;;;15.61;52.14;99633.50;5052595;28;20469;-62
2022/05/31 07:17:28;;;;;;;3.70;2.25;;;;;;;15.66;52.12;99622.53;5052327;28;20052;-61
2022/05/31 07:19:55;;;;;;;4.45;2.20;;;;;;;15.70;52.33;99623.97;5053843;28;20048;-62
2022/05/31 07:22:38;;;;;;;5.78;2.03;;;;;;;15.77;52.54;99627.78;5052518;28;20128;-61
2022/05/31 07:25:07;;;;;;;4.93;2.10;;;;;;;15.82;52.33;99628.28;5068862;28;20049;-61
2022/05/31 07:27:34;;;;;;;4.28;2.15;;;;;;;15.89;52.43;99623.31;5053485;28;20060;-60
2022/05/31 07:30:02;;;;;;;4.22;2.20;;;;;;;15.96;52.51;99624.50;5053242;28;20103;-62
2022/05/31 07:32:28;;;;;;;5.50;2.13;;;;;;;16.06;52.17;99631.72;5052186;28;20045;-60
2022/05/31 07:35:15;;;;;;;3.70;2.20;;;;;;;16.18;52.54;99622.75;5053076;28;20049;-61
2022/05/31 07:37:42;;;;;;;6.85;2.47;;;;;;;16.30;52.35;99615.59;5053475;28;20061;-61
2022/05/31 07:40:08;;;;;;;4.05;2.30;;;;;;;16.41;52.47;99610.19;5053058;28;20497;-62
2022/05/31 07:42:36;;;;;;;4.00;2.35;;;;;;;16.54;52.24;99618.00;5052942;28;20485;-61
2022/05/31 07:45:04;;;;;;;5.00;2.10;;;;;;;16.67;51.44;99609.81;5053011;28;20060;-63
2022/05/31 07:47:31;;;;;;;3.17;1.70;;;;;;;16.80;50.58;99612.28;5053072;28;20053;-62
2022/05/31 07:49:57;;;;;;;4.05;1.90;;;;;;;16.90;50.71;99611.47;5053172;28;20055;-62
2022/05/31 07:52:24;;;;;;;3.47;2.10;;;;;;;17.00;50.04;99611.50;5052575;28;20049;-61
2022/05/31 07:54:51;;;;;;;3.70;1.70;;;;;;;17.10;50.50;99607.13;5051472;28;20481;-62
2022/05/31 08:00:04;;;;;;;3.70;1.52;;;;;;;17.33;49.91;99609.56;5053098;28;20052;-62
2022/05/31 08:02:30;;;;;;;5.05;2.05;;;;;;;17.42;49.63;99610.59;5051439;28;20483;-63
2022/05/31 08:04:57;;;;;;;2.60;1.80;;;;;;;17.52;49.40;99608.78;5052706;28;20076;-61
2022/05/31 08:07:24;;;;;;;4.88;2.10;;;;;;;17.61;49.03;99614.28;5052560;28;20045;-63
2022/05/31 08:09:50;;;;;;;4.10;1.95;;;;;;;17.68;48.62;99612.75;5052318;28;20045;-61
2022/05/31 08:12:17;;;;;;;2.85;1.92;;;;;;;17.77;48.57;99614.59;5051447;28;20049;-64
2022/05/31 08:14:43;;;;;;;3.55;2.00;;;;;;;17.86;48.47;99610.25;5052605;28;20068;-61
2022/05/31 08:17:10;;;;;;;2.75;1.73;;;;;;;17.96;48.31;99615.56;5053039;28;20049;-62
2022/05/31 08:19:43;;;;;;;5.50;2.20;;;;;;;18.05;48.01;99612.06;5052434;28;20401;-63
2022/05/31 08:22:09;;;;;;;3.90;2.00;;;;;;;18.15;47.79;99612.13;5052100;28;20053;-61
2022/05/31 08:24:36;;;;;;;5.10;1.90;;;;;;;18.24;48.00;99618.41;5052675;28;20413;-60
2022/05/31 08:27:11;;;;;;;3.05;1.83;;;;;;;18.32;47.10;99618.53;5052338;28;20075;-61
2022/05/31 08:29:39;;;;;;;3.20;1.70;;;;;;;18.42;47.03;99599.03;5052403;28;20060;-61
2022/05/31 08:32:07;;;;;;;3.13;1.50;;;;;;;18.52;46.60;99605.22;5050687;28;20098;-61
2022/05/31 08:34:33;;;;;;;4.25;1.58;;;;;;;18.58;45.53;99609.94;5050635;28;20449;-63
2022/05/31 08:37:00;;;;;;;5.50;1.70;;;;;;;18.67;45.63;99602.09;5052148;28;20064;-62
2022/05/31 08:39:27;;;;;;;2.83;1.70;;;;;;;18.74;45.80;99604.03;5052314;28;20056;-61
2022/05/31 08:42:21;;;;;;;3.88;1.83;;;;;;;18.81;44.99;99612.31;5051648;28;20527;-63
2022/05/31 08:45:14;;;;;;;4.72;1.75;;;;;;;18.95;44.18;99607.50;5051257;28;20049;-61
2022/05/31 08:47:47;;;;;;;4.57;1.85;;;;;;;19.04;44.79;99606.59;5041394;28;20049;-61
2022/05/31 08:53:30;;;;;;;8.93;1.80;;;;;;;19.18;44.84;99601.81;5051744;28;20517;-61
2022/05/31 08:59:14;;;;;;;3.85;1.80;;;;;;;19.27;44.30;99606.25;5051680;28;20047;-63
2022/05/31 09:01:50;;;;;;;6.47;1.80;;;;;;;19.31;43.81;99602.28;5051225;28;20057;-61
2022/05/31 09:04:26;;;;;;;5.20;2.05;;;;;;;19.33;43.55;99597.63;5050185;28;20053;-62
2022/05/31 09:07:12;;;;;;;4.60;1.80;;;;;;;19.30;43.73;99597.09;5066877;28;20048;-62
2022/05/31 09:09:58;;;;;;;6.15;2.25;;;;;;;19.33;43.53;99602.16;5050332;28;20413;-63
2022/05/31 09:12:43;;;;;;;3.97;2.00;;;;;;;19.24;43.22;99598.53;5066685;28;20053;-62
2022/05/31 09:15:19;;;;;;;4.68;1.90;;;;;;;19.22;43.09;99595.19;5051544;28;20052;-61
2022/05/31 09:18:06;;;;;;;3.15;1.70;;;;;;;19.20;42.97;99594.47;5050087;28;20053;-61
2022/05/31 09:20:53;;;;;;;4.57;1.90;;;;;;;19.17;43.45;99589.47;5049956;28;20237;-63
2022/05/31 09:23:29;;;;;;;2.42;1.73;;;;;;;19.16;43.88;99593.94;5050303;28;20053;-61
2022/05/31 09:26:09;;;;;;;4.03;1.77;;;;;;;19.20;42.92;99598.00;5051284;28;20041;-61
2022/05/31 09:28:48;;;;;;;4.57;1.98;;;;;;;19.21;43.46;99591.66;5051117;28;20048;-60
2022/05/31 09:31:33;;;;;;;3.17;1.83;;;;;;;19.27;44.09;99596.44;5051118;28;20049;-61
2022/05/31 09:34:08;;;;;;;3.35;1.80;;;;;;;19.35;43.58;99587.66;5050960;28;20515;-61
2022/05/31 09:36:50;;;;;;;2.70;1.95;;;;;;;19.42;42.92;99584.38;5051056;28;20053;-62
2022/05/31 09:39:25;;;;;;;3.90;1.52;;;;;;;19.50;43.01;99590.69;5049568;28;20048;-61
2022/05/31 09:42:01;;;;;;;3.47;1.88;;;;;;;19.58;42.93;99592.59;5050982;28;20102;-61
2022/05/31 09:44:44;;;;;;;3.33;1.80;;;;;;;19.66;43.07;99590.00;5049668;28;20041;-61
2022/05/31 09:47:22;;;;;;;5.30;2.30;;;;;;;19.72;42.63;99591.22;5049660;28;20612;-61
2022/05/31 09:49:51;;;;;;;3.80;2.00;;;;;;;19.81;41.94;99586.81;5066090;28;20049;-63
2022/05/31 09:52:22;;;;;;;5.07;2.03;;;;;;;19.84;42.03;99585.69;5065880;28;20127;-63
2022/05/31 09:57:57;;;;;;;6.40;1.83;;;;;;;19.90;41.93;99580.56;5050644;28;20052;-63
2022/05/31 10:00:24;;;;;;;5.65;1.60;;;;;;;19.93;42.10;99580.25;5049485;28;20118;-62
2022/05/31 10:03:12;;;;;;;3.15;1.52;;;;;;;19.91;42.09;99581.38;5050691;28;20049;-62
2022/05/31 10:05:41;;;;;;;2.72;1.80;;;;;;;19.95;41.23;99589.97;5066017;28;20581;-61
2022/05/31 10:08:15;;;;;;;4.40;1.92;;;;;;;19.88;40.95;99587.88;5049164;28;20493;-62
2022/05/31 10:10:48;;;;;;;3.22;1.92;;;;;;;19.84;40.03;99588.34;5049109;28;20524;-62
2022/05/31 10:13:35;;;;;;;8.52;1.92;;;;;;;19.73;40.85;99586.75;5050545;28;20052;-60
2022/05/31 10:16:10;;;;;;;3.03;1.85;;;;;;;19.67;40.49;99590.84;5049280;28;20072;-62
2022/05/31 10:18:50;;;;;;;2.47;1.77;;;;;;;19.57;40.22;99584.72;5050266;28;20532;-62
2022/05/31 10:21:46;;;;;;;4.18;2.60;;;;;;;19.42;41.50;99587.06;5065838;28;20048;-63
2022/05/31 10:24:25;;;;;;;4.53;1.90;;;;;;;19.35;41.16;99590.34;5045744;28;20535;-62
2022/05/31 10:27:05;;;;;;;6.35;2.20;;;;;;;19.21;41.40;99588.19;5050333;28;20051;-63
2022/05/31 10:29:40;;;;;;;3.38;1.95;;;;;;;19.12;41.13;99577.41;5049264;28;20041;-64
2022/05/31 10:32:42;;;;;;;6.30;2.03;;;;;;;18.94;42.17;99579.97;5065446;28;20049;-63
2022/05/31 10:35:24;;;;;;;4.95;2.13;;;;;;;18.84;41.88;99569.31;5053083;28;20056;-62
2022/05/31 10:38:16;;;;;;;4.32;2.10;;;;;;;18.73;42.19;99578.34;5054521;28;20061;-61
2022/05/31 10:40:52;;;;;;;4.13;1.87;;;;;;;18.69;41.83;99571.63;5050459;28;20057;-63
2022/05/31 10:43:28;;;;;;;3.53;2.20;;;;;;;18.61;41.74;99575.03;5054263;28;20044;-61
2022/05/31 10:45:55;;;;;;;4.28;2.03;;;;;;;18.57;41.88;99578.97;5052638;28;20088;-62
2022/05/31 10:48:24;;;;;;;4.53;1.80;;;;;;;18.51;42.25;99568.03;5054221;28;20489;-62
2022/05/31 10:51:03;;;;;;;6.18;2.20;;;;;;;18.43;42.03;99580.25;5052832;28;20052;-61
2022/05/31 10:53:48;;;;;;;4.45;2.17;;;;;;;18.44;42.75;99571.28;5054313;28;20052;-62
2022/05/31 10:56:24;;;;;;;2.92;1.80;;;;;;;18.41;42.87;99568.91;5053832;28;20486;-61
2022/05/31 10:58:58;;;;;;;3.35;2.15;;;;;;;18.44;43.03;99568.63;5052802;28;20044;-61
2022/05/31 11:01:30;;;;;;;4.78;2.05;;;;;;;18.47;43.46;99564.81;5069162;28;20049;-61
2022/05/31 11:04:15;;;;;;;4.07;2.30;;;;;;;18.54;43.53;99565.09;5053963;28;20059;-60
2022/05/31 11:06:59;;;;;;;3.30;2.08;;;;;;;18.66;43.66;99566.59;5053621;28;20049;-61
2022/05/31 11:12:49;;;;;;;5.22;2.20;;;;;;;19.04;44.08;99563.94;5053311;28;20508;-62
2022/05/31 11:15:40;;;;;;;4.95;2.40;;;;;;;19.34;44.71;99564.66;5068876;28;20075;-61
2022/05/31 11:18:19;;;;;;;3.65;2.38;;;;;;;19.67;43.89;99559.63;5068908;28;20037;-62
2022/05/31 11:20:46;;;;;;;4.40;2.38;;;;;;;20.01;44.76;99557.31;5053167;28;20092;-63
2022/05/31 11:23:48;;;;;;;2.65;2.10;;;;;;;20.33;42.91;99558.53;5053249;28;20057;-61
2022/05/31 11:26:33;;;;;;;3.80;2.00;;;;;;;20.76;42.41;99555.97;5053338;28;20049;-62
2022/05/31 11:29:26;;;;;;;2.97;2.33;;;;;;;21.20;41.33;99559.53;5053631;28;20057;-61
2022/05/31 11:32:22;;;;;;;2.72;1.77;;;;;;;21.56;41.33;99558.44;5053067;28;20041;-61
2022/05/31 11:35:04;;;;;;;2.58;1.60;;;;;;;21.89;39.24;99561.22;5051848;28;20409;-61
2022/05/31 11:37:45;;;;;;;3.65;1.83;;;;;;;22.08;38.44;99560.06;5053396;28;20048;-60
2022/05/31 11:40:17;;;;;;;2.85;1.80;;;;;;;22.21;38.07;99554.16;5053029;28;20049;-63
2022/05/31 11:42:53;;;;;;;4.53;2.20;;;;;;;22.32;38.16;99555.66;5053183;28;20053;-62
2022/05/31 11:45:42;;;;;;;2.88;1.80;;;;;;;22.39;39.15;99548.63;5052213;28;20052;-61
2022/05/31 11:48:33;;;;;;;3.50;2.00;;;;;;;22.56;38.96;99542.41;5052017;28;20053;-62
2022/05/31 11:51:06;;;;;;;3.10;1.90;;;;;;;22.84;37.72;99537.47;5052799;28;20053;-64
2022/05/31 11:54:09;;;;;;;7.22;2.00;;;;;;;23.15;38.13;99547.44;5053072;28;20056;-61
2022/05/31 11:57:16;;;;;;;3.22;1.58;;;;;;;23.45;37.76;99544.09;5052492;28;20528;-59
2022/05/31 11:59:52;;;;;;;2.80;1.70;;;;;;;23.62;36.16;99541.31;5053084;28;20390;-62
2022/05/31 12:02:31;;;;;;;2.92;1.75;;;;;;;23.62;35.61;99552.06;5052590;28;20068;-61
2022/05/31 12:05:11;;;;;;;2.17;1.60;;;;;;;23.56;34.89;99553.59;5051211;28;20533;-62
2022/05/31 12:07:45;;;;;;;2.88;2.00;;;;;;;23.49;35.23;99553.47;5068216;28;20110;-62
2022/05/31 12:10:24;;;;;;;4.25;1.83;;;;;;;23.37;34.73;99539.63;5051115;28;20045;-61
2022/05/31 12:12:54;;;;;;;2.25;1.70;;;;;;;23.35;35.16;99540.78;5067917;28;20041;-61
2022/05/31 12:15:29;;;;;;;2.80;1.88;;;;;;;23.30;35.80;99533.25;5051181;28;20497;-62
2022/05/31 12:18:03;;;;;;;3.75;2.20;;;;;;;23.40;35.17;99538.44;5052423;28;20094;-64
2022/05/31 12:20:38;;;;;;;4.75;2.15;;;;;;;23.56;35.35;99542.84;5050895;28;20404;-62
2022/05/31 12:23:13;;;;;;;2.42;1.85;;;;;;;23.77;36.32;99531.44;5051302;28;20053;-62
2022/05/31 12:25:46;;;;;;;2.28;1.50;;;;;;;23.96;34.97;99532.00;5052078;28;20098;-61